createdAt,value
2023-05-05T00:02:44.105Z,2.00
2023-05-05T00:07:54.473Z,1.50
2023-05-05T00:13:04.267Z,1.70
2023-05-05T00:18:14.722Z,2.30
2023-05-05T00:23:24.663Z,1.90
2023-05-05T00:28:34.280Z,2.60
2023-05-05T00:33:43.966Z,2.20
2023-05-05T00:38:53.707Z,2.20
2023-05-05T00:44:03.730Z,2.60
2023-05-05T00:49:13.540Z,2.40
2023-05-05T00:54:23.449Z,2.20
2023-05-05T00:59:34.792Z,2.00
2023-05-05T01:04:44.390Z,1.90
2023-05-05T01:10:15.218Z,2.20
2023-05-05T01:15:36.212Z,2.10
2023-05-05T01:20:55.060Z,2.80
2023-05-05T01:26:26.554Z,1.70
2023-05-05T01:31:54.404Z,2.00
2023-05-05T01:37:23.787Z,2.50
2023-05-05T01:42:36.486Z,2.50
2023-05-05T01:47:48.903Z,2.20
2023-05-05T01:53:00.793Z,1.50
2023-05-05T01:58:12.210Z,2.10
2023-05-05T02:03:24.128Z,3.00
2023-05-05T02:08:36.468Z,2.20
2023-05-05T02:13:48.386Z,2.20
2023-05-05T02:19:05.031Z,2.10
2023-05-05T02:24:15.037Z,2.20
2023-05-05T02:29:30.370Z,1.80
2023-05-05T02:34:42.818Z,1.60
2023-05-05T02:40:00.552Z,1.80
2023-05-05T02:45:19.824Z,1.40
2023-05-05T02:50:29.533Z,1.60
2023-05-05T02:55:51.649Z,1.30
2023-05-05T03:01:13.240Z,1.50
2023-05-05T03:06:27.508Z,1.60
2023-05-05T03:11:41.066Z,1.60
2023-05-05T03:16:53.695Z,1.30
2023-05-05T03:22:04.563Z,1.60
2023-05-05T03:27:14.389Z,1.80
2023-05-05T03:32:24.469Z,1.30
2023-05-05T03:37:34.201Z,1.70
2023-05-05T03:42:44.105Z,2.40
2023-05-05T03:47:53.981Z,1.20
2023-05-05T03:53:03.934Z,1.40
2023-05-05T03:58:13.653Z,1.40
2023-05-05T04:03:23.425Z,1.80
2023-05-05T04:08:33.294Z,1.10
2023-05-05T04:13:43.080Z,1.30
2023-05-05T04:18:52.915Z,1.20
2023-05-05T04:24:02.594Z,1.70
2023-05-05T04:29:12.485Z,1.10
2023-05-05T04:34:22.678Z,1.60
2023-05-05T04:39:32.511Z,1.40
2023-05-05T04:44:42.486Z,1.50
2023-05-05T04:49:52.139Z,1.50
2023-05-05T04:55:01.912Z,1.70
2023-05-05T05:00:14.932Z,1.50
2023-05-05T05:05:25.123Z,1.20
2023-05-05T05:10:34.878Z,1.50
2023-05-05T05:15:44.955Z,1.20
2023-05-05T05:20:54.694Z,1.30
2023-05-05T05:26:05.561Z,1.70
2023-05-05T05:31:15.157Z,1.50
2023-05-05T05:36:25.146Z,1.10
2023-05-05T05:41:35.299Z,1.70
2023-05-05T05:46:45.161Z,1.70
2023-05-05T05:51:54.882Z,1.40
2023-05-05T05:57:05.002Z,1.40
2023-05-05T06:02:14.921Z,1.70
2023-05-05T06:07:24.819Z,2.10
2023-05-05T06:12:34.523Z,1.40
2023-05-05T06:17:46.496Z,2.30
2023-05-05T06:22:56.303Z,1.50
2023-05-05T06:28:06.166Z,1.30
2023-05-05T06:33:15.792Z,1.20
2023-05-05T06:38:25.389Z,1.70
2023-05-05T06:43:35.411Z,1.00
2023-05-05T06:48:44.964Z,1.90
2023-05-05T06:53:54.694Z,1.50
2023-05-05T06:59:04.280Z,1.90
2023-05-05T07:04:14.099Z,1.20
2023-05-05T07:09:24.129Z,2.20
2023-05-05T07:14:33.774Z,1.30
2023-05-05T07:19:44.552Z,1.80
2023-05-05T07:24:54.668Z,1.40
2023-05-05T07:30:09.100Z,1.40
2023-05-05T07:35:21.879Z,2.00
2023-05-05T07:40:34.811Z,1.20
2023-05-05T07:45:45.250Z,1.50
2023-05-05T07:50:57.031Z,1.50
2023-05-05T07:56:09.129Z,1.60
2023-05-05T08:01:19.280Z,1.30
2023-05-05T08:06:32.035Z,1.80
2023-05-05T08:11:42.237Z,1.40
2023-05-05T08:16:52.024Z,1.60
2023-05-05T08:22:02.740Z,1.60
2023-05-05T08:27:14.341Z,1.60
2023-05-05T08:32:24.405Z,3.20
2023-05-05T08:37:34.372Z,4.00
2023-05-05T08:42:45.885Z,1.90
2023-05-05T08:47:56.581Z,1.40
2023-05-05T08:53:17.851Z,1.20
2023-05-05T08:58:29.380Z,1.90
2023-05-05T09:03:40.874Z,1.70
2023-05-05T09:08:51.014Z,1.50
2023-05-05T09:19:28.892Z,1.00
2023-05-05T09:24:38.685Z,1.50
2023-05-05T09:29:54.068Z,1.80
2023-05-05T09:35:05.599Z,1.20
2023-05-05T09:40:18.761Z,1.20
2023-05-05T09:45:32.760Z,1.80
2023-05-05T09:50:49.642Z,1.20
2023-05-05T09:56:01.672Z,1.40
2023-05-05T10:01:25.034Z,1.70
2023-05-05T10:06:47.784Z,2.20
2023-05-05T10:12:00.850Z,1.70
2023-05-05T10:17:12.849Z,2.00
2023-05-05T10:22:26.753Z,1.90
2023-05-05T10:27:44.074Z,1.70
2023-05-05T10:33:14.055Z,1.50
2023-05-05T10:38:33.168Z,1.80
2023-05-05T10:43:43.860Z,1.70
2023-05-05T10:49:06.270Z,1.70
2023-05-05T10:54:24.424Z,1.80
2023-05-05T10:59:47.842Z,1.60
2023-05-05T11:05:21.912Z,1.60
2023-05-05T11:10:46.976Z,2.00
2023-05-05T11:15:58.092Z,1.60
2023-05-05T11:21:17.859Z,1.00
2023-05-05T11:26:55.973Z,1.70
2023-05-05T11:32:18.192Z,1.70
2023-05-05T11:37:30.773Z,1.30
2023-05-05T11:42:40.870Z,1.30
2023-05-05T11:47:50.597Z,1.50
2023-05-05T11:53:00.942Z,1.40
2023-05-05T11:58:24.042Z,1.40
2023-05-05T12:03:39.922Z,1.40
2023-05-05T12:08:49.888Z,1.90
2023-05-05T12:14:13.975Z,1.90
2023-05-05T12:19:23.640Z,2.10
2023-05-05T12:24:33.572Z,1.30
2023-05-05T12:29:43.281Z,1.00
2023-05-05T12:34:58.721Z,1.20
2023-05-05T12:40:30.485Z,1.20
2023-05-05T12:45:40.180Z,1.30
2023-05-05T12:50:49.821Z,1.70
2023-05-05T12:55:59.633Z,1.30
2023-05-05T13:01:15.698Z,1.70
2023-05-05T13:06:27.482Z,1.70
2023-05-05T13:11:40.404Z,1.20
2023-05-05T13:16:50.418Z,3.20
2023-05-05T13:22:01.151Z,1.20
2023-05-05T13:27:11.061Z,1.40
2023-05-05T13:32:20.568Z,1.50
2023-05-05T13:37:31.685Z,1.10
2023-05-05T13:42:41.314Z,1.70
2023-05-05T13:47:51.347Z,1.30
2023-05-05T13:53:00.965Z,2.60
2023-05-05T13:58:10.684Z,1.60
2023-05-05T14:03:20.238Z,1.40
2023-05-05T14:08:30.093Z,1.10
2023-05-05T14:13:39.740Z,1.10
2023-05-05T14:18:49.324Z,1.40
2023-05-05T14:23:58.815Z,1.30
2023-05-05T14:29:08.424Z,1.20
2023-05-05T14:34:18.179Z,1.30
2023-05-05T14:39:28.107Z,1.10
2023-05-05T14:44:37.748Z,1.30
2023-05-05T14:49:47.331Z,1.30
2023-05-05T14:54:56.868Z,0.90
2023-05-05T15:00:07.987Z,1.50
2023-05-05T15:05:17.585Z,1.40
2023-05-05T15:10:28.026Z,1.30
2023-05-05T15:15:37.683Z,1.00
2023-05-05T15:20:47.232Z,1.50
2023-05-05T15:25:56.761Z,1.40
2023-05-05T15:31:06.689Z,1.70
2023-05-05T15:36:22.801Z,1.50
2023-05-05T15:41:35.185Z,1.70
2023-05-05T15:46:44.836Z,1.50
2023-05-05T15:51:55.228Z,2.10
2023-05-05T15:57:05.247Z,2.10
2023-05-05T16:02:14.856Z,1.80
2023-05-05T16:07:24.355Z,2.10
2023-05-05T16:12:34.215Z,1.90
2023-05-05T16:17:43.830Z,2.00
2023-05-05T16:22:53.448Z,2.10
2023-05-05T16:28:03.135Z,1.70
2023-05-05T16:33:12.818Z,2.20
2023-05-05T16:38:22.416Z,2.10
2023-05-05T16:43:32.204Z,2.20
2023-05-05T16:48:41.815Z,2.20
2023-05-05T16:53:51.629Z,2.30
2023-05-05T16:59:01.227Z,2.30
2023-05-05T17:04:12.139Z,2.10
2023-05-05T17:09:25.184Z,1.70
2023-05-05T17:14:35.852Z,15.20
2023-05-05T17:19:45.714Z,7.30
2023-05-05T17:24:55.211Z,12.50
2023-05-05T17:30:04.957Z,21.80
2023-05-05T17:35:15.541Z,17.10
2023-05-05T17:40:25.223Z,5.60
2023-05-05T17:45:34.955Z,7.60
2023-05-05T17:50:44.477Z,3.60
2023-05-05T17:55:54.769Z,3.10
2023-05-05T18:01:04.420Z,3.30
2023-05-05T18:06:13.933Z,3.20
2023-05-05T18:11:27.851Z,2.70
2023-05-05T18:16:37.315Z,4.10
2023-05-05T18:21:46.927Z,2.50
2023-05-05T18:26:58.633Z,2.90
2023-05-05T18:32:09.212Z,3.40
2023-05-05T18:37:18.833Z,3.20
2023-05-05T18:42:28.597Z,3.10
2023-05-05T18:47:40.374Z,2.80
2023-05-05T18:52:49.954Z,2.90
2023-05-05T18:57:59.902Z,1.80
2023-05-05T19:03:09.699Z,1.50
2023-05-05T19:08:19.164Z,2.40
2023-05-05T19:13:28.852Z,2.10
2023-05-05T19:18:38.456Z,2.40
2023-05-05T19:23:48.084Z,2.50
2023-05-05T19:28:57.953Z,2.40
2023-05-05T19:34:08.242Z,2.00
2023-05-05T19:39:18.338Z,2.10
2023-05-05T19:44:28.019Z,2.20
2023-05-05T19:49:37.587Z,3.00
2023-05-05T19:54:47.119Z,2.10
2023-05-05T19:59:56.793Z,1.70
2023-05-05T20:05:06.977Z,1.80
2023-05-05T20:10:16.954Z,1.70
2023-05-05T20:15:27.056Z,1.80
2023-05-05T20:20:36.841Z,2.20
2023-05-05T20:25:46.572Z,1.90
2023-05-05T20:30:56.447Z,2.10
2023-05-05T20:36:07.577Z,1.90
2023-05-05T20:41:17.153Z,2.60
2023-05-05T20:46:26.654Z,1.60
2023-05-05T20:51:37.357Z,2.20
2023-05-05T20:56:46.811Z,2.90
2023-05-05T21:01:56.443Z,2.90
2023-05-05T21:07:06.973Z,3.00
2023-05-05T21:12:16.694Z,3.80
2023-05-05T21:17:26.283Z,3.30
2023-05-05T21:22:35.854Z,3.70
2023-05-05T21:27:45.510Z,2.00
2023-05-05T21:32:55.106Z,2.30
2023-05-05T21:38:04.682Z,1.80
2023-05-05T21:43:14.419Z,2.30
2023-05-05T21:48:23.869Z,1.90
2023-05-05T21:53:33.430Z,2.60
2023-05-05T21:58:42.948Z,1.50
2023-05-05T22:03:52.714Z,2.00
2023-05-05T22:09:02.544Z,2.30
2023-05-05T22:14:12.281Z,2.10
2023-05-05T22:19:22.445Z,2.20
2023-05-05T22:24:32.367Z,2.30
2023-05-05T22:29:42.044Z,2.00
2023-05-05T22:34:51.617Z,2.70
2023-05-05T22:40:01.377Z,1.70
2023-05-05T22:45:12.909Z,2.30
2023-05-05T22:50:22.627Z,2.50
2023-05-05T22:55:32.174Z,2.40
2023-05-05T23:00:41.950Z,2.20
2023-05-05T23:05:52.267Z,2.30
2023-05-05T23:11:03.726Z,2.20
2023-05-05T23:16:13.463Z,2.40
2023-05-05T23:21:22.984Z,2.20
2023-05-05T23:26:32.705Z,2.60
2023-05-05T23:31:42.180Z,2.00
2023-05-05T23:36:52.089Z,2.70
2023-05-05T23:42:01.620Z,2.20
2023-05-05T23:47:11.225Z,2.30
2023-05-05T23:52:21.152Z,1.90
2023-05-05T23:57:30.825Z,2.50
